sensor_id;sensor_type;location;lat;lon;timestamp;pressure;altitude;pressure_sealevel;temperature;humidity
69982;BME280;57319;56.274;43.980;2023-02-03T00:00:21;99505.47;;;-3.79;81.61
69982;BME280;57319;56.274;43.980;2023-02-03T00:02:47;99505.34;;;-3.82;81.50
69982;BME280;57319;56.274;43.980;2023-02-03T00:05:12;99502.81;;;-3.82;81.76
69982;BME280;57319;56.274;43.980;2023-02-03T00:07:38;99504.53;;;-3.81;81.66
69982;BME280;57319;56.274;43.980;2023-02-03T00:10:05;99500.19;;;-3.85;82.01
69982;BME280;57319;56.274;43.980;2023-02-03T00:12:31;99499.34;;;-3.86;81.86
69982;BME280;57319;56.274;43.980;2023-02-03T00:14:57;99501.91;;;-3.84;82.01
69982;BME280;57319;56.274;43.980;2023-02-03T00:17:23;99500.13;;;-3.87;82.10
69982;BME280;57319;56.274;43.980;2023-02-03T00:19:49;99501.03;;;-3.85;81.92
69982;BME280;57319;56.274;43.980;2023-02-03T00:22:14;99504.22;;;-3.89;82.10
69982;BME280;57319;56.274;43.980;2023-02-03T00:24:40;99501.84;;;-3.86;82.19
69982;BME280;57319;56.274;43.980;2023-02-03T00:27:05;99499.41;;;-3.84;82.02
69982;BME280;57319;56.274;43.980;2023-02-03T00:29:31;99500.31;;;-3.82;81.59
69982;BME280;57319;56.274;43.980;2023-02-03T00:31:57;99496.09;;;-3.83;81.54
69982;BME280;57319;56.274;43.980;2023-02-03T00:34:27;99495.94;;;-3.86;81.81
69982;BME280;57319;56.274;43.980;2023-02-03T00:36:53;99500.19;;;-3.85;81.64
69982;BME280;57319;56.274;43.980;2023-02-03T00:39:19;99492.69;;;-3.84;81.40
69982;BME280;57319;56.274;43.980;2023-02-03T00:41:44;99491.06;;;-3.83;81.19
69982;BME280;57319;56.274;43.980;2023-02-03T00:44:10;99494.44;;;-3.83;81.75
69982;BME280;57319;56.274;43.980;2023-02-03T00:53:18;99495.31;;;-3.81;81.69
69982;BME280;57319;56.274;43.980;2023-02-03T00:55:43;99495.41;;;-3.79;81.52
69982;BME280;57319;56.274;43.980;2023-02-03T00:58:09;99507.19;;;-3.78;81.67
69982;BME280;57319;56.274;43.980;2023-02-03T01:00:35;99505.38;;;-3.81;81.71
69982;BME280;57319;56.274;43.980;2023-02-03T01:03:00;99507.13;;;-3.80;81.79
69982;BME280;57319;56.274;43.980;2023-02-03T01:05:26;99501.13;;;-3.83;81.53
69982;BME280;57319;56.274;43.980;2023-02-03T01:07:51;99490.13;;;-3.85;81.44
69982;BME280;57319;56.274;43.980;2023-02-03T01:10:17;99497.94;;;-3.79;81.38
69982;BME280;57319;56.274;43.980;2023-02-03T01:12:42;99501.34;;;-3.77;81.58
69982;BME280;57319;56.274;43.980;2023-02-03T01:15:08;99497.00;;;-3.81;81.26
69982;BME280;57319;56.274;43.980;2023-02-03T01:17:34;99495.22;;;-3.84;81.31
69982;BME280;57319;56.274;43.980;2023-02-03T01:19:59;99496.31;;;-3.77;81.55
69982;BME280;57319;56.274;43.980;2023-02-03T01:22:25;99497.25;;;-3.75;81.50
69982;BME280;57319;56.274;43.980;2023-02-03T01:24:50;99488.00;;;-3.76;81.45
69982;BME280;57319;56.274;43.980;2023-02-03T01:27:16;99484.47;;;-3.80;81.24
69982;BME280;57319;56.274;43.980;2023-02-03T01:29:41;99485.47;;;-3.76;81.20
69982;BME280;57319;56.274;43.980;2023-02-03T01:32:07;99492.16;;;-3.77;81.55
69982;BME280;57319;56.274;43.980;2023-02-03T01:34:32;99487.31;;;-3.72;81.26
69982;BME280;57319;56.274;43.980;2023-02-03T01:36:58;99485.72;;;-3.70;81.12
69982;BME280;57319;56.274;43.980;2023-02-03T01:39:23;99482.41;;;-3.69;81.23
69982;BME280;57319;56.274;43.980;2023-02-03T01:41:50;99483.91;;;-3.72;81.30
69982;BME280;57319;56.274;43.980;2023-02-03T01:49:52;99478.00;;;-3.75;81.23
69982;BME280;57319;56.274;43.980;2023-02-03T01:52:20;99484.81;;;-3.72;80.81
69982;BME280;57319;56.274;43.980;2023-02-03T01:54:47;99482.97;;;-3.76;80.92
69982;BME280;57319;56.274;43.980;2023-02-03T01:57:21;99480.56;;;-3.73;81.09
69982;BME280;57319;56.274;43.980;2023-02-03T01:59:51;99477.44;;;-3.67;80.96
69982;BME280;57319;56.274;43.980;2023-02-03T02:02:18;99473.13;;;-3.70;81.31
69982;BME280;57319;56.274;43.980;2023-02-03T02:04:54;99473.19;;;-3.68;81.14
69982;BME280;57319;56.274;43.980;2023-02-03T02:07:22;99467.41;;;-3.66;81.28
69982;BME280;57319;56.274;43.980;2023-02-03T02:09:48;99467.47;;;-3.64;80.93
69982;BME280;57319;56.274;43.980;2023-02-03T02:12:14;99473.63;;;-3.58;80.80
69982;BME280;57319;56.274;43.980;2023-02-03T02:14:41;99471.16;;;-3.56;80.69
69982;BME280;57319;56.274;43.980;2023-02-03T02:17:20;99473.00;;;-3.52;80.78
69982;BME280;57319;56.274;43.980;2023-02-03T02:20:01;99472.25;;;-3.49;80.65
69982;BME280;57319;56.274;43.980;2023-02-03T02:23:06;99469.63;;;-3.52;80.27
69982;BME280;57319;56.274;43.980;2023-02-03T02:28:15;99475.75;;;-3.46;80.63
69982;BME280;57319;56.274;43.980;2023-02-03T02:31:10;99475.66;;;-3.49;80.45
69982;BME280;57319;56.274;43.980;2023-02-03T02:33:58;99473.09;;;-3.50;80.61
69982;BME280;57319;56.274;43.980;2023-02-03T02:36:42;99471.25;;;-3.54;80.53
69982;BME280;57319;56.274;43.980;2023-02-03T02:42:07;99472.94;;;-3.53;80.50
69982;BME280;57319;56.274;43.980;2023-02-03T02:44:42;99468.63;;;-3.56;80.47
69982;BME280;57319;56.274;43.980;2023-02-03T02:47:17;99468.63;;;-3.56;80.39
69982;BME280;57319;56.274;43.980;2023-02-03T02:49:55;99458.53;;;-3.58;80.39
69982;BME280;57319;56.274;43.980;2023-02-03T02:52:23;99461.19;;;-3.54;80.08
69982;BME280;57319;56.274;43.980;2023-02-03T02:54:53;99466.22;;;-3.54;80.29
69982;BME280;57319;56.274;43.980;2023-02-03T02:57:23;99474.72;;;-3.51;80.16
69982;BME280;57319;56.274;43.980;2023-02-03T02:59:50;99470.47;;;-3.52;80.59
69982;BME280;57319;56.274;43.980;2023-02-03T03:02:15;99478.16;;;-3.49;80.63
69982;BME280;57319;56.274;43.980;2023-02-03T03:04:43;99477.91;;;-3.55;80.32
69982;BME280;57319;56.274;43.980;2023-02-03T03:07:15;99473.00;;;-3.52;80.09
69982;BME280;57319;56.274;43.980;2023-02-03T03:09:45;99477.22;;;-3.51;80.03
69982;BME280;57319;56.274;43.980;2023-02-03T03:12:22;99464.53;;;-3.54;80.16
69982;BME280;57319;56.274;43.980;2023-02-03T03:14:53;99472.16;;;-3.52;80.37
69982;BME280;57319;56.274;43.980;2023-02-03T03:17:25;99471.09;;;-3.58;80.76
69982;BME280;57319;56.274;43.980;2023-02-03T03:19:55;99473.81;;;-3.53;80.68
69982;BME280;57319;56.274;43.980;2023-02-03T03:22:29;99478.97;;;-3.50;80.09
69982;BME280;57319;56.274;43.980;2023-02-03T03:25:35;99474.97;;;-3.66;80.34
69982;BME280;57319;56.274;43.980;2023-02-03T03:28:09;99475.03;;;-3.64;80.67
69982;BME280;57319;56.274;43.980;2023-02-03T03:30:38;99478.38;;;-3.65;80.36
69982;BME280;57319;56.274;43.980;2023-02-03T03:33:04;99475.16;;;-3.61;80.31
69982;BME280;57319;56.274;43.980;2023-02-03T03:35:36;99474.78;;;-3.70;80.73
69982;BME280;57319;56.274;43.980;2023-02-03T03:38:10;99484.06;;;-3.69;80.54
69982;BME280;57319;56.274;43.980;2023-02-03T03:40:43;99482.50;;;-3.66;80.33
69982;BME280;57319;56.274;43.980;2023-02-03T03:43:19;99480.72;;;-3.68;80.69
69982;BME280;57319;56.274;43.980;2023-02-03T03:45:51;99472.34;;;-3.69;80.27
69982;BME280;57319;56.274;43.980;2023-02-03T03:48:26;99473.00;;;-3.73;80.23
69982;BME280;57319;56.274;43.980;2023-02-03T03:50:57;99475.31;;;-3.79;80.64
69982;BME280;57319;56.274;43.980;2023-02-03T03:53:24;99478.03;;;-3.73;80.89
69982;BME280;57319;56.274;43.980;2023-02-03T03:55:53;99481.66;;;-3.66;80.91
69982;BME280;57319;56.274;43.980;2023-02-03T03:58:26;99481.09;;;-3.59;80.43
69982;BME280;57319;56.274;43.980;2023-02-03T04:00:56;99475.13;;;-3.63;80.56
69982;BME280;57319;56.274;43.980;2023-02-03T04:03:27;99476.63;;;-3.66;80.65
69982;BME280;57319;56.274;43.980;2023-02-03T04:05:55;99470.09;;;-3.63;80.73
69982;BME280;57319;56.274;43.980;2023-02-03T04:08:20;99475.13;;;-3.63;80.13
69982;BME280;57319;56.274;43.980;2023-02-03T04:10:46;99470.66;;;-3.68;80.65
69982;BME280;57319;56.274;43.980;2023-02-03T04:13:11;99471.56;;;-3.68;80.34
69982;BME280;57319;56.274;43.980;2023-02-03T04:15:37;99482.28;;;-3.72;80.79
69982;BME280;57319;56.274;43.980;2023-02-03T04:18:03;99472.09;;;-3.75;80.66
69982;BME280;57319;56.274;43.980;2023-02-03T04:20:30;99472.56;;;-3.84;80.14
69982;BME280;57319;56.274;43.980;2023-02-03T04:22:57;99480.84;;;-3.86;80.90
69982;BME280;57319;56.274;43.980;2023-02-03T04:25:24;99484.91;;;-3.90;80.93
69982;BME280;57319;56.274;43.980;2023-02-03T04:27:50;99483.19;;;-3.91;81.18
69982;BME280;57319;56.274;43.980;2023-02-03T04:30:16;99489.13;;;-3.89;80.97
69982;BME280;57319;56.274;43.980;2023-02-03T04:32:43;99485.59;;;-3.94;80.94
69982;BME280;57319;56.274;43.980;2023-02-03T04:35:09;99476.31;;;-3.95;81.19
69982;BME280;57319;56.274;43.980;2023-02-03T04:37:35;99486.38;;;-3.95;81.30
69982;BME280;57319;56.274;43.980;2023-02-03T04:40:00;99495.78;;;-3.91;81.21
69982;BME280;57319;56.274;43.980;2023-02-03T04:42:26;99497.59;;;-3.87;81.03
69982;BME280;57319;56.274;43.980;2023-02-03T04:44:52;99502.53;;;-3.90;81.04
69982;BME280;57319;56.274;43.980;2023-02-03T04:47:18;99496.44;;;-3.95;80.91
69982;BME280;57319;56.274;43.980;2023-02-03T04:49:44;99495.19;;;-4.05;81.08
69982;BME280;57319;56.274;43.980;2023-02-03T04:52:10;99495.38;;;-4.00;80.90
69982;BME280;57319;56.274;43.980;2023-02-03T04:54:36;99494.59;;;-3.99;80.96
69982;BME280;57319;56.274;43.980;2023-02-03T04:57:02;99503.13;;;-3.96;80.65
69982;BME280;57319;56.274;43.980;2023-02-03T04:59:27;99489.69;;;-3.96;80.74
69982;BME280;57319;56.274;43.980;2023-02-03T05:01:53;99501.41;;;-3.97;81.04
69982;BME280;57319;56.274;43.980;2023-02-03T05:04:19;99492.03;;;-4.01;80.81
69982;BME280;57319;56.274;43.980;2023-02-03T05:06:45;99487.59;;;-4.06;80.48
69982;BME280;57319;56.274;43.980;2023-02-03T05:09:10;99480.66;;;-4.12;80.52
69982;BME280;57319;56.274;43.980;2023-02-03T05:11:36;99482.00;;;-4.20;80.60
69982;BME280;57319;56.274;43.980;2023-02-03T05:14:02;99483.22;;;-4.30;80.83
69982;BME280;57319;56.274;43.980;2023-02-03T05:16:27;99484.56;;;-4.38;80.91
69982;BME280;57319;56.274;43.980;2023-02-03T05:18:53;99485.97;;;-4.45;81.06
69982;BME280;57319;56.274;43.980;2023-02-03T05:21:19;99487.09;;;-4.58;81.47
69982;BME280;57319;56.274;43.980;2023-02-03T05:23:44;99484.50;;;-4.60;81.75
69982;BME280;57319;56.274;43.980;2023-02-03T05:26:10;99487.09;;;-4.58;81.40
69982;BME280;57319;56.274;43.980;2023-02-03T05:28:36;99488.63;;;-4.62;81.65
69982;BME280;57319;56.274;43.980;2023-02-03T05:31:02;99480.94;;;-4.65;82.26
69982;BME280;57319;56.274;43.980;2023-02-03T05:33:28;99488.63;;;-4.62;82.06
69982;BME280;57319;56.274;43.980;2023-02-03T05:35:54;99487.03;;;-4.60;81.76
69982;BME280;57319;56.274;43.980;2023-02-03T05:38:20;99488.53;;;-4.63;81.66
69982;BME280;57319;56.274;43.980;2023-02-03T05:40:47;99485.88;;;-4.66;81.75
69982;BME280;57319;56.274;43.980;2023-02-03T05:43:32;99484.91;;;-4.70;81.84
69982;BME280;57319;56.274;43.980;2023-02-03T05:46:02;99481.47;;;-4.72;81.57
69982;BME280;57319;56.274;43.980;2023-02-03T05:48:28;99494.88;;;-4.71;81.73
69982;BME280;57319;56.274;43.980;2023-02-03T05:50:54;99490.59;;;-4.74;81.77
69982;BME280;57319;56.274;43.980;2023-02-03T05:53:19;99487.84;;;-4.79;81.76
69982;BME280;57319;56.274;43.980;2023-02-03T05:55:45;99493.22;;;-4.71;81.94
69982;BME280;57319;56.274;43.980;2023-02-03T05:58:11;99484.91;;;-4.70;81.73
69982;BME280;57319;56.274;43.980;2023-02-03T06:00:36;99487.56;;;-4.67;81.62
69982;BME280;57319;56.274;43.980;2023-02-03T06:03:02;99491.03;;;-4.63;81.98
69982;BME280;57319;56.274;43.980;2023-02-03T06:05:29;99488.53;;;-4.63;81.37
69982;BME280;57319;56.274;43.980;2023-02-03T06:07:55;99497.25;;;-4.55;81.38
69982;BME280;57319;56.274;43.980;2023-02-03T06:10:21;99491.31;;;-4.57;81.14
69982;BME280;57319;56.274;43.980;2023-02-03T06:12:47;99500.19;;;-4.46;80.79
69982;BME280;57319;56.274;43.980;2023-02-03T06:15:13;99494.63;;;-4.38;81.46
69982;BME280;57319;56.274;43.980;2023-02-03T06:17:39;99490.72;;;-4.32;81.20
69982;BME280;57319;56.274;43.980;2023-02-03T06:20:06;99495.22;;;-4.24;80.73
69982;BME280;57319;56.274;43.980;2023-02-03T06:22:32;99493.06;;;-4.15;80.69
69982;BME280;57319;56.274;43.980;2023-02-03T06:24:58;99489.91;;;-4.11;80.81
69982;BME280;57319;56.274;43.980;2023-02-03T06:27:23;99497.94;;;-3.99;80.30
69982;BME280;57319;56.274;43.980;2023-02-03T06:29:49;99496.63;;;-3.90;80.46
69982;BME280;57319;56.274;43.980;2023-02-03T06:32:15;99495.09;;;-3.87;79.84
69982;BME280;57319;56.274;43.980;2023-02-03T06:34:41;99499.41;;;-3.84;80.30
69982;BME280;57319;56.274;43.980;2023-02-03T06:37:06;99507.13;;;-3.80;80.34
69982;BME280;57319;56.274;43.980;2023-02-03T06:39:32;99506.44;;;-3.76;79.83
69982;BME280;57319;56.274;43.980;2023-02-03T06:41:57;99504.19;;;-3.69;79.73
69982;BME280;57319;56.274;43.980;2023-02-03T06:44:23;99499.50;;;-3.60;79.75
69982;BME280;57319;56.274;43.980;2023-02-03T06:46:49;99492.06;;;-3.59;79.13
69982;BME280;57319;56.274;43.980;2023-02-03T06:49:15;99508.16;;;-3.53;79.07
69982;BME280;57319;56.274;43.980;2023-02-03T06:51:42;99504.84;;;-3.52;78.78
69982;BME280;57319;56.274;43.980;2023-02-03T06:54:10;99501.72;;;-3.47;78.93
69982;BME280;57319;56.274;43.980;2023-02-03T06:56:35;99504.97;;;-3.49;78.75
69982;BME280;57319;56.274;43.980;2023-02-03T06:59:01;99498.25;;;-3.50;78.46
69982;BME280;57319;56.274;43.980;2023-02-03T07:01:26;99502.81;;;-3.40;78.85
69982;BME280;57319;56.274;43.980;2023-02-03T07:03:54;99495.34;;;-3.38;78.49
69982;BME280;57319;56.274;43.980;2023-02-03T07:06:26;99496.31;;;-3.35;78.43
69982;BME280;57319;56.274;43.980;2023-02-03T07:08:55;99499.41;;;-3.42;77.96
69982;BME280;57319;56.274;43.980;2023-02-03T07:11:20;99497.63;;;-3.45;78.61
69982;BME280;57319;56.274;43.980;2023-02-03T07:13:46;99502.72;;;-3.43;78.72
69982;BME280;57319;56.274;43.980;2023-02-03T07:16:12;99493.75;;;-3.36;78.53
69982;BME280;57319;56.274;43.980;2023-02-03T07:18:38;99495.59;;;-3.32;78.22
69982;BME280;57319;56.274;43.980;2023-02-03T07:21:05;99499.88;;;-3.30;78.11
69982;BME280;57319;56.274;43.980;2023-02-03T07:23:31;99493.22;;;-3.28;78.13
69982;BME280;57319;56.274;43.980;2023-02-03T07:26:01;99497.84;;;-3.38;77.76
69982;BME280;57319;56.274;43.980;2023-02-03T07:28:27;99485.53;;;-3.32;77.78
69982;BME280;57319;56.274;43.980;2023-02-03T07:30:53;99490.09;;;-3.22;77.60
69982;BME280;57319;56.274;43.980;2023-02-03T07:33:18;99488.97;;;-3.08;77.16
69982;BME280;57319;56.274;43.980;2023-02-03T07:35:53;99483.25;;;-3.03;76.99
69982;BME280;57319;56.274;43.980;2023-02-03T07:38:19;99491.91;;;-2.97;76.48
69982;BME280;57319;56.274;43.980;2023-02-03T07:40:45;99486.72;;;-3.00;76.54
69982;BME280;57319;56.274;43.980;2023-02-03T07:43:11;99494.88;;;-2.84;76.54
69982;BME280;57319;56.274;43.980;2023-02-03T07:45:37;99483.72;;;-2.67;76.20
69982;BME280;57319;56.274;43.980;2023-02-03T07:48:02;99487.91;;;-2.67;75.62
69982;BME280;57319;56.274;43.980;2023-02-03T07:50:28;99484.28;;;-2.51;75.72
69982;BME280;57319;56.274;43.980;2023-02-03T07:52:54;99475.38;;;-2.42;75.25
69982;BME280;57319;56.274;43.980;2023-02-03T07:55:20;99472.59;;;-2.49;74.93
69982;BME280;57319;56.274;43.980;2023-02-03T07:57:46;99480.53;;;-2.39;74.89
69982;BME280;57319;56.274;43.980;2023-02-03T08:00:14;99470.88;;;-2.26;74.73
69982;BME280;57319;56.274;43.980;2023-02-03T08:02:41;99472.97;;;-2.14;73.75
69982;BME280;57319;56.274;43.980;2023-02-03T08:05:08;99475.47;;;-2.14;73.95
69982;BME280;57319;56.274;43.980;2023-02-03T08:07:34;99479.59;;;-2.16;74.24
69982;BME280;57319;56.274;43.980;2023-02-03T08:09:59;99472.09;;;-2.15;74.00
69982;BME280;57319;56.274;43.980;2023-02-03T08:12:25;99473.94;;;-2.09;73.91
69982;BME280;57319;56.274;43.980;2023-02-03T08:14:50;99478.50;;;-1.99;73.40
69982;BME280;57319;56.274;43.980;2023-02-03T08:17:16;99477.34;;;-2.09;72.59
69982;BME280;57319;56.274;43.980;2023-02-03T08:19:42;99487.31;;;-2.12;73.00
69982;BME280;57319;56.274;43.980;2023-02-03T08:22:07;99487.41;;;-2.10;73.18
69982;BME280;57319;56.274;43.980;2023-02-03T08:24:33;99473.53;;;-2.22;72.92
69982;BME280;57319;56.274;43.980;2023-02-03T08:27:00;99486.75;;;-2.29;73.18
69982;BME280;57319;56.274;43.980;2023-02-03T08:29:25;99486.19;;;-2.20;73.61
69982;BME280;57319;56.274;43.980;2023-02-03T08:31:51;99483.34;;;-2.31;72.46
69982;BME280;57319;56.274;43.980;2023-02-03T08:34:18;99476.63;;;-2.30;73.03
69982;BME280;57319;56.274;43.980;2023-02-03T08:36:44;99477.50;;;-2.28;72.70
69982;BME280;57319;56.274;43.980;2023-02-03T08:39:09;99483.56;;;-2.23;72.63
69982;BME280;57319;56.274;43.980;2023-02-03T08:41:35;99482.91;;;-2.17;72.55
69982;BME280;57319;56.274;43.980;2023-02-03T08:44:01;99482.41;;;-2.09;72.20
69982;BME280;57319;56.274;43.980;2023-02-03T08:46:26;99476.66;;;-2.05;71.87
69982;BME280;57319;56.274;43.980;2023-02-03T08:48:53;99473.44;;;-2.00;71.70
69982;BME280;57319;56.274;43.980;2023-02-03T08:51:21;99479.47;;;-1.95;71.64
69982;BME280;57319;56.274;43.980;2023-02-03T08:53:46;99483.59;;;-1.97;71.83
69982;BME280;57319;56.274;43.980;2023-02-03T08:56:12;99473.69;;;-1.91;71.54
69982;BME280;57319;56.274;43.980;2023-02-03T08:58:38;99484.59;;;-1.94;71.52
69982;BME280;57319;56.274;43.980;2023-02-03T09:01:09;99475.19;;;-1.98;71.56
69982;BME280;57319;56.274;43.980;2023-02-03T09:03:35;99483.50;;;-2.00;71.40
69982;BME280;57319;56.274;43.980;2023-02-03T09:06:02;99481.00;;;-2.00;71.27
69982;BME280;57319;56.274;43.980;2023-02-03T09:08:28;99484.66;;;-1.91;71.10
69982;BME280;57319;56.274;43.980;2023-02-03T09:10:57;99482.94;;;-1.92;70.60
69982;BME280;57319;56.274;43.980;2023-02-03T09:13:24;99486.44;;;-1.88;70.65
69982;BME280;57319;56.274;43.980;2023-02-03T09:15:50;99480.56;;;-1.87;70.31
69982;BME280;57319;56.274;43.980;2023-02-03T09:18:16;99484.19;;;-1.79;70.34
69982;BME280;57319;56.274;43.980;2023-02-03T09:20:42;99490.22;;;-1.75;70.09
69982;BME280;57319;56.274;43.980;2023-02-03T09:23:07;99474.69;;;-1.88;69.92
69982;BME280;57319;56.274;43.980;2023-02-03T09:25:33;99485.69;;;-1.85;70.02
69982;BME280;57319;56.274;43.980;2023-02-03T09:28:02;99484.09;;;-1.82;70.21
69982;BME280;57319;56.274;43.980;2023-02-03T09:30:27;99485.06;;;-1.78;70.19
69982;BME280;57319;56.274;43.980;2023-02-03T09:32:53;99476.53;;;-1.82;70.19
69982;BME280;57319;56.274;43.980;2023-02-03T09:35:21;99486.94;;;-1.73;70.45
69982;BME280;57319;56.274;43.980;2023-02-03T09:37:47;99476.84;;;-1.73;70.35
69982;BME280;57319;56.274;43.980;2023-02-03T09:40:33;99481.84;;;-1.74;69.76
69982;BME280;57319;56.274;43.980;2023-02-03T09:46:06;99473.69;;;-1.91;69.70
69982;BME280;57319;56.274;43.980;2023-02-03T09:48:41;99470.44;;;-1.89;70.43
69982;BME280;57319;56.274;43.980;2023-02-03T09:51:26;99467.91;;;-1.89;69.98
69982;BME280;57319;56.274;43.980;2023-02-03T09:53:58;99474.63;;;-1.89;70.32
69982;BME280;57319;56.274;43.980;2023-02-03T09:56:31;99461.31;;;-1.85;69.88
69982;BME280;57319;56.274;43.980;2023-02-03T09:58:58;99464.69;;;-1.84;69.91
69982;BME280;57319;56.274;43.980;2023-02-03T10:01:38;99456.44;;;-1.79;69.92
69982;BME280;57319;56.274;43.980;2023-02-03T10:06:45;99465.66;;;-1.81;69.77
69982;BME280;57319;56.274;43.980;2023-02-03T10:20:15;99466.50;;;-1.80;70.01
69982;BME280;57319;56.274;43.980;2023-02-03T10:22:50;99462.50;;;-1.74;70.09
69982;BME280;57319;56.274;43.980;2023-02-03T10:25:44;99458.34;;;-1.73;70.57
69982;BME280;57319;56.274;43.980;2023-02-03T10:28:17;99460.69;;;-1.78;70.04
69982;BME280;57319;56.274;43.980;2023-02-03T10:30:47;99457.97;;;-1.84;69.96
69982;BME280;57319;56.274;43.980;2023-02-03T10:33:15;99461.66;;;-1.74;70.09
69982;BME280;57319;56.274;43.980;2023-02-03T10:36:21;99460.59;;;-1.81;69.84
69982;BME280;57319;56.274;43.980;2023-02-03T10:38:53;99453.88;;;-1.80;69.63
69982;BME280;57319;56.274;43.980;2023-02-03T10:41:23;99454.53;;;-1.86;70.03
69982;BME280;57319;56.274;43.980;2023-02-03T10:43:50;99450.84;;;-1.96;70.15
69982;BME280;57319;56.274;43.980;2023-02-03T10:46:26;99452.38;;;-2.01;70.46
69982;BME280;57319;56.274;43.980;2023-02-03T10:48:52;99451.56;;;-2.00;70.65
69982;BME280;57319;56.274;43.980;2023-02-03T10:51:24;99458.34;;;-1.99;71.13
69982;BME280;57319;56.274;43.980;2023-02-03T10:53:50;99449.34;;;-1.91;70.78
69982;BME280;57319;56.274;43.980;2023-02-03T10:56:21;99445.47;;;-1.81;70.83
69982;BME280;57319;56.274;43.980;2023-02-03T10:58:56;99446.25;;;-1.82;70.54
69982;BME280;57319;56.274;43.980;2023-02-03T11:01:48;99444.69;;;-1.78;70.59
69982;BME280;57319;56.274;43.980;2023-02-03T11:04:27;99446.31;;;-1.80;70.56
69982;BME280;57319;56.274;43.980;2023-02-03T11:06:55;99446.34;;;-1.79;70.55
69982;BME280;57319;56.274;43.980;2023-02-03T11:09:32;99437.97;;;-1.78;70.53
69982;BME280;57319;56.274;43.980;2023-02-03T11:12:16;99443.13;;;-1.75;70.71
69982;BME280;57319;56.274;43.980;2023-02-03T11:14:47;99443.19;;;-1.73;70.81
69982;BME280;57319;56.274;43.980;2023-02-03T11:19:46;99451.47;;;-1.77;70.53
69982;BME280;57319;56.274;43.980;2023-02-03T11:22:26;99448.78;;;-1.82;70.50
69982;BME280;57319;56.274;43.980;2023-02-03T11:24:53;99446.91;;;-1.88;70.58
69982;BME280;57319;56.274;43.980;2023-02-03T11:27:19;99453.03;;;-1.81;70.78
69982;BME280;57319;56.274;43.980;2023-02-03T11:29:50;99446.16;;;-1.85;70.74
69982;BME280;57319;56.274;43.980;2023-02-03T11:32:28;99451.53;;;-1.76;70.75
69982;BME280;57319;56.274;43.980;2023-02-03T11:34:59;99457.75;;;-1.90;70.94
69982;BME280;57319;56.274;43.980;2023-02-03T11:37:39;99452.06;;;-1.84;70.76
69982;BME280;57319;56.274;43.980;2023-02-03T11:40:11;99454.41;;;-1.91;70.72
69982;BME280;57319;56.274;43.980;2023-02-03T11:50:45;99460.53;;;-2.08;70.62
69982;BME280;57319;56.274;43.980;2023-02-03T11:53:21;99462.94;;;-2.13;70.67
69982;BME280;57319;56.274;43.980;2023-02-03T12:10:27;99459.34;;;-2.19;71.26
69982;BME280;57319;56.274;43.980;2023-02-03T12:18:27;99460.25;;;-2.42;72.04
69982;BME280;57319;56.274;43.980;2023-02-03T12:27:19;99460.94;;;-2.70;72.64
69982;BME280;57319;56.274;43.980;2023-02-03T12:30:01;99464.84;;;-2.78;73.22
69982;BME280;57319;56.274;43.980;2023-02-03T12:32:52;99460.84;;;-2.73;73.40
69982;BME280;57319;56.274;43.980;2023-02-03T12:35:25;99457.09;;;-2.84;73.69
69982;BME280;57319;56.274;43.980;2023-02-03T12:38:06;99462.34;;;-2.78;73.87
69982;BME280;57319;56.274;43.980;2023-02-03T12:40:35;99461.44;;;-2.80;73.69
69982;BME280;57319;56.274;43.980;2023-02-03T12:45:41;99465.44;;;-2.85;74.00
69982;BME280;57319;56.274;43.980;2023-02-03T12:48:12;99469.78;;;-2.81;73.74
69982;BME280;57319;56.274;43.980;2023-02-03T12:50:52;99465.69;;;-2.78;74.10
69982;BME280;57319;56.274;43.980;2023-02-03T12:53:26;99463.81;;;-2.83;74.05
69982;BME280;57319;56.274;43.980;2023-02-03T12:56:10;99462.72;;;-2.90;74.47
69982;BME280;57319;56.274;43.980;2023-02-03T12:58:53;99460.28;;;-2.88;74.71
69982;BME280;57319;56.274;43.980;2023-02-03T13:01:33;99470.19;;;-2.93;74.87
69982;BME280;57319;56.274;43.980;2023-02-03T13:04:17;99469.22;;;-2.97;75.06
69982;BME280;57319;56.274;43.980;2023-02-03T13:06:52;99465.94;;;-2.94;75.31
69982;BME280;57319;56.274;43.980;2023-02-03T13:09:30;99466.72;;;-2.97;75.03
69982;BME280;57319;56.274;43.980;2023-02-03T13:12:19;99462.38;;;-3.01;75.25
69982;BME280;57319;56.274;43.980;2023-02-03T13:20:31;99466.16;;;-3.11;75.89
69982;BME280;57319;56.274;43.980;2023-02-03T13:23:04;99461.66;;;-3.19;75.97
69982;BME280;57319;56.274;43.980;2023-02-03T13:31:17;99466.84;;;-3.15;75.68
69982;BME280;57319;56.274;43.980;2023-02-03T13:42:52;99463.13;;;-3.25;76.59
69982;BME280;57319;56.274;43.980;2023-02-03T13:45:32;99464.06;;;-3.22;76.70
69982;BME280;57319;56.274;43.980;2023-02-03T13:48:16;99466.22;;;-3.32;76.71
69982;BME280;57319;56.274;43.980;2023-02-03T13:50:44;99468.75;;;-3.32;76.95
69982;BME280;57319;56.274;43.980;2023-02-03T13:53:20;99462.19;;;-3.28;76.78
69982;BME280;57319;56.274;43.980;2023-02-03T13:55:58;99466.69;;;-3.19;76.88
69982;BME280;57319;56.274;43.980;2023-02-03T13:58:36;99471.72;;;-3.19;76.27
69982;BME280;57319;56.274;43.980;2023-02-03T14:01:04;99473.47;;;-3.18;76.44
69982;BME280;57319;56.274;43.980;2023-02-03T14:05:57;99483.59;;;-3.17;76.32
69982;BME280;57319;56.274;43.980;2023-02-03T14:16:33;99487.97;;;-3.34;77.32
69982;BME280;57319;56.274;43.980;2023-02-03T14:18:59;99470.78;;;-3.44;77.09
69982;BME280;57319;56.274;43.980;2023-02-03T14:21:28;99479.50;;;-3.36;77.25
69982;BME280;57319;56.274;43.980;2023-02-03T14:24:09;99482.13;;;-3.33;77.08
69982;BME280;57319;56.274;43.980;2023-02-03T14:26:45;99490.16;;;-3.20;76.92
69982;BME280;57319;56.274;43.980;2023-02-03T14:29:33;99475.72;;;-3.25;76.64
69982;BME280;57319;56.274;43.980;2023-02-03T14:34:39;99477.41;;;-3.25;77.03
69982;BME280;57319;56.274;43.980;2023-02-03T15:00:03;99478.03;;;-3.31;77.31
69982;BME280;57319;56.274;43.980;2023-02-03T15:02:31;99470.34;;;-3.34;77.25
69982;BME280;57319;56.274;43.980;2023-02-03T15:10:20;99472.50;;;-3.43;77.37
69982;BME280;57319;56.274;43.980;2023-02-03T15:12:54;99468.31;;;-3.43;77.65
69982;BME280;57319;56.274;43.980;2023-02-03T15:15:25;99470.72;;;-3.46;77.89
69982;BME280;57319;56.274;43.980;2023-02-03T15:17:53;99466.53;;;-3.45;77.85